Mecheria, Algeria
Current Conditions -  °F | °C
As of 7:00 PM on Sunday 21 Dec 2014 (Local Time) from DAAY Reporting Station
Clear Clear  
Wind Chill: 50°   Ceiling: Unl
Heat Index: 50°   Visibility: 6mi
Dew Point: 41°   Wind: 0mph
Humidity: 71%   Direction: NA
Pressure: 30.48"   Gusts: NA
Location:  33.55°N, 0.28°W
Report Text: DAAY 211800Z 00000KT CAVOK 10/05 Q1032
Loading
Personal Weather Stations






























Interactive Weather Map New forecast layout! Learn more

10-Day Weather Forecast

Advertisements
Track Severe Weather on mobile